createdAt,value
2022-09-29T00:08:26.182Z,2.10
2022-09-29T00:18:27.458Z,2.50
2022-09-29T00:28:28.722Z,2.28
2022-09-29T00:38:30.018Z,2.30
2022-09-29T00:48:31.287Z,2.25
2022-09-29T00:58:32.526Z,2.38
2022-09-29T01:08:33.797Z,2.40
2022-09-29T01:18:35.113Z,2.25
2022-09-29T01:28:36.367Z,2.20
2022-09-29T01:38:37.597Z,2.40
2022-09-29T01:48:38.807Z,2.50
2022-09-29T01:58:40.168Z,2.30
2022-09-29T02:08:41.379Z,2.45
2022-09-29T02:18:42.599Z,2.40
2022-09-29T02:28:43.843Z,2.30
2022-09-29T02:38:45.084Z,2.30
2022-09-29T02:48:46.321Z,2.30
2022-09-29T02:58:48.448Z,2.20
2022-09-29T03:08:49.875Z,2.03
2022-09-29T03:18:51.097Z,2.20
2022-09-29T03:28:52.362Z,2.20
2022-09-29T03:38:53.663Z,2.20
2022-09-29T03:59:23.843Z,2.03
2022-09-29T04:09:25.140Z,2.28
2022-09-29T04:19:26.456Z,2.10
2022-09-29T04:29:27.704Z,2.00
2022-09-29T04:39:29.001Z,2.10
2022-09-29T04:49:30.247Z,2.00
2022-09-29T04:59:31.461Z,2.05
2022-09-29T05:09:33.971Z,2.08
2022-09-29T05:19:35.433Z,2.00
2022-09-29T05:29:36.726Z,1.98
2022-09-29T05:39:37.977Z,2.28
2022-09-29T05:49:39.295Z,2.53
2022-09-29T05:59:40.668Z,2.40
2022-09-29T06:09:41.929Z,2.50
2022-09-29T06:19:44.960Z,2.42
2022-09-29T06:29:46.349Z,2.60
2022-09-29T06:39:47.822Z,2.00
2022-09-29T06:49:53.947Z,2.58
2022-09-29T07:10:01.954Z,2.47
2022-09-29T07:20:03.409Z,2.70
2022-09-29T07:30:04.790Z,2.65
2022-09-29T07:40:06.143Z,2.63
2022-09-29T07:50:07.487Z,2.45
2022-09-29T08:00:08.897Z,2.35
2022-09-29T08:10:17.007Z,2.10
2022-09-29T08:20:18.884Z,2.58
2022-09-29T08:30:20.102Z,2.20
2022-09-29T08:40:21.445Z,2.20
2022-09-29T08:50:22.899Z,2.47
2022-09-29T09:00:24.209Z,2.13
2022-09-29T09:10:25.442Z,2.33
2022-09-29T09:20:26.812Z,2.40
2022-09-29T09:30:28.252Z,2.28
2022-09-29T09:40:29.582Z,2.00
2022-09-29T09:50:30.911Z,1.88
2022-09-29T10:00:32.138Z,1.70
2022-09-29T10:10:33.535Z,2.03
2022-09-29T10:20:34.946Z,1.70
2022-09-29T10:30:36.347Z,2.00
2022-09-29T10:40:37.658Z,1.30
2022-09-29T10:50:38.903Z,1.25
2022-09-29T11:00:40.238Z,1.48
2022-09-29T11:10:41.685Z,1.27
2022-09-29T11:20:42.927Z,1.55
2022-09-29T11:30:44.309Z,1.25
2022-09-29T11:40:45.668Z,1.30
2022-09-29T11:50:46.956Z,1.15
2022-09-29T12:00:48.494Z,1.13
2022-09-29T12:10:49.872Z,1.10
2022-09-29T12:20:51.149Z,0.93
2022-09-29T12:30:52.560Z,0.95
2022-09-29T12:40:53.974Z,1.10
2022-09-29T12:50:55.281Z,1.00
2022-09-29T13:00:56.615Z,0.80
2022-09-29T13:10:57.960Z,0.70
2022-09-29T13:20:59.370Z,0.82
2022-09-29T13:31:00.794Z,0.90
2022-09-29T13:41:02.203Z,0.73
2022-09-29T13:51:05.597Z,0.80
2022-09-29T14:01:07.017Z,0.95
2022-09-29T14:11:08.395Z,0.80
2022-09-29T14:21:09.626Z,0.60
2022-09-29T14:31:12.295Z,0.63
2022-09-29T14:41:19.519Z,0.70
2022-09-29T14:51:27.218Z,0.80
2022-09-29T15:01:35.960Z,0.90
2022-09-29T15:11:45.228Z,0.70
2022-09-29T15:21:50.151Z,0.98
2022-09-29T15:32:00.860Z,0.80
2022-09-29T15:42:08.919Z,0.70
2022-09-29T15:52:18.205Z,0.70
2022-09-29T16:02:26.235Z,0.50
2022-09-29T16:12:34.119Z,0.70
2022-09-29T16:22:42.172Z,1.13
2022-09-29T16:32:53.175Z,1.30
2022-09-29T16:42:59.249Z,1.40
2022-09-29T16:53:07.098Z,1.33
2022-09-29T17:03:15.138Z,1.50
2022-09-29T17:13:26.155Z,1.50
2022-09-29T17:23:27.411Z,1.38
2022-09-29T17:33:28.667Z,1.48
2022-09-29T17:43:30.047Z,1.58
2022-09-29T17:53:31.465Z,1.58
2022-09-29T18:03:35.441Z,1.70
2022-09-29T18:13:40.477Z,2.10
2022-09-29T18:23:41.889Z,2.47
2022-09-29T18:33:43.227Z,2.40
2022-09-29T18:43:44.498Z,3.15
2022-09-29T18:53:45.845Z,3.15
2022-09-29T19:03:47.188Z,3.38
2022-09-29T19:13:48.516Z,3.35
2022-09-29T19:23:49.791Z,3.33
2022-09-29T19:33:51.071Z,3.50
2022-09-29T19:43:52.445Z,3.20
2022-09-29T19:53:53.763Z,3.78
2022-09-29T20:03:55.141Z,3.40
2022-09-29T20:14:15.007Z,3.50
2022-09-29T20:24:16.345Z,3.28
2022-09-29T20:34:17.656Z,3.17
2022-09-29T20:44:19.071Z,3.00
2022-09-29T20:54:20.770Z,2.60
2022-09-29T21:04:22.287Z,2.80
2022-09-29T21:14:23.764Z,2.83
2022-09-29T21:24:25.306Z,3.00
2022-09-29T21:34:26.739Z,2.90
2022-09-29T21:44:28.051Z,2.83
2022-09-29T21:54:29.345Z,2.75
2022-09-29T22:04:30.655Z,2.65
2022-09-29T22:14:31.891Z,2.50
2022-09-29T22:24:33.258Z,2.85
2022-09-29T22:34:34.511Z,3.20
2022-09-29T22:44:35.782Z,3.42
2022-09-29T22:54:37.016Z,3.05
2022-09-29T23:04:38.275Z,3.38
2022-09-29T23:14:39.564Z,3.53
2022-09-29T23:24:40.812Z,3.50
2022-09-29T23:34:42.044Z,3.10
2022-09-29T23:44:43.269Z,3.63
2022-09-29T23:54:44.486Z,3.33
